createdAt,value
2022-10-26T07:00:09.186Z,12.66
2022-10-26T07:03:18.995Z,12.74
2022-10-26T07:06:28.780Z,12.73
2022-10-26T07:09:38.709Z,12.80
2022-10-26T07:12:49.577Z,12.83
2022-10-26T07:16:00.602Z,12.90
2022-10-26T07:19:10.235Z,13.09
2022-10-26T07:22:19.973Z,13.42
2022-10-26T07:25:30.074Z,13.63
2022-10-26T07:28:39.727Z,13.94
2022-10-26T07:31:51.129Z,14.20
2022-10-26T07:35:00.934Z,14.35
2022-10-26T07:38:10.721Z,14.51
2022-10-26T07:41:20.612Z,14.74
2022-10-26T07:44:30.234Z,14.89
2022-10-26T07:47:44.097Z,15.02
2022-10-26T07:50:53.898Z,15.06
2022-10-26T07:54:03.782Z,15.33
2022-10-26T07:57:13.543Z,15.71
2022-10-26T08:00:23.439Z,15.84
2022-10-26T08:03:34.652Z,16.11
2022-10-26T08:06:44.321Z,16.19
2022-10-26T08:09:54.178Z,16.27
2022-10-26T08:13:04.005Z,16.34
2022-10-26T08:16:14.348Z,16.41
2022-10-26T08:19:25.483Z,16.58
2022-10-26T08:22:35.231Z,16.87
2022-10-26T08:25:44.998Z,17.03
2022-10-26T08:28:54.924Z,17.11
2022-10-26T08:32:04.887Z,17.00
2022-10-26T08:35:16.247Z,16.88
2022-10-26T08:38:34.237Z,16.97
2022-10-26T08:41:46.407Z,16.90
2022-10-26T08:45:03.342Z,16.99
2022-10-26T08:55:34.658Z,17.26
2022-10-26T08:58:53.257Z,17.72
2022-10-26T09:02:03.116Z,17.88
2022-10-26T09:05:17.137Z,17.85
2022-10-26T09:08:36.762Z,18.07
2022-10-26T09:11:58.745Z,18.95
2022-10-26T09:15:18.495Z,19.62
2022-10-26T09:26:55.941Z,20.94
2022-10-26T09:30:15.469Z,21.03
2022-10-26T09:37:59.387Z,21.14
2022-10-26T09:41:19.164Z,21.05
2022-10-26T09:44:35.799Z,20.86
2022-10-26T09:47:52.768Z,20.49
2022-10-26T09:51:04.800Z,20.07
2022-10-26T09:54:17.683Z,19.77
2022-10-26T09:57:27.509Z,19.71
2022-10-26T10:00:39.739Z,19.83
2022-10-26T10:03:49.262Z,19.99
2022-10-26T10:07:13.944Z,19.80
2022-10-26T10:10:24.156Z,20.29
2022-10-26T10:13:36.314Z,20.49
2022-10-26T10:16:55.878Z,20.44
2022-10-26T10:20:12.700Z,20.39
2022-10-26T10:23:28.541Z,20.20
2022-10-26T10:26:57.626Z,19.97
2022-10-26T10:30:22.829Z,19.84
2022-10-26T10:33:38.453Z,19.81
2022-10-26T10:36:48.003Z,19.68
2022-10-26T10:39:59.367Z,19.54
2022-10-26T10:43:14.360Z,19.55
2022-10-26T10:46:27.769Z,19.60
2022-10-26T10:49:39.440Z,19.71
2022-10-26T10:52:49.477Z,19.88
2022-10-26T10:56:15.527Z,19.99
2022-10-26T10:59:42.562Z,19.98
2022-10-26T11:03:05.967Z,20.09
2022-10-26T11:06:20.706Z,20.13
2022-10-26T11:09:33.667Z,20.06
2022-10-26T11:12:48.897Z,20.14
2022-10-26T11:16:03.876Z,20.16
2022-10-26T11:19:20.669Z,20.33
2022-10-26T11:22:36.888Z,20.43
2022-10-26T11:25:52.194Z,20.53
2022-10-26T11:29:07.363Z,20.37
2022-10-26T11:32:22.093Z,20.59
2022-10-26T11:35:36.639Z,20.90
2022-10-26T11:38:57.261Z,21.10
2022-10-26T11:42:14.319Z,21.20
2022-10-26T11:45:26.871Z,21.53
2022-10-26T11:48:42.295Z,21.82
2022-10-26T11:51:57.106Z,22.00
2022-10-26T11:55:11.747Z,22.48
2022-10-26T11:58:25.535Z,22.60
2022-10-26T12:01:35.746Z,22.70
2022-10-26T12:04:50.764Z,22.81
2022-10-26T12:08:05.479Z,22.90
2022-10-26T12:11:35.315Z,22.79
2022-10-26T12:14:52.803Z,22.47
2022-10-26T12:18:10.169Z,22.25
2022-10-26T12:21:19.974Z,22.11
2022-10-26T12:24:35.071Z,22.01
2022-10-26T12:27:54.978Z,21.71
2022-10-26T12:31:31.369Z,21.62
2022-10-26T12:35:01.318Z,21.60
2022-10-26T12:38:49.611Z,21.62
2022-10-26T12:42:27.663Z,21.58
2022-10-26T12:45:38.472Z,21.62
2022-10-26T12:48:49.295Z,21.52
2022-10-26T12:51:59.079Z,21.45
2022-10-26T12:55:31.630Z,21.42
2022-10-26T12:59:04.460Z,21.59
2022-10-26T13:02:41.077Z,21.71
2022-10-26T13:06:12.872Z,21.53
2022-10-26T13:09:25.222Z,21.45
2022-10-26T13:12:48.290Z,21.38
2022-10-26T13:16:00.239Z,21.37
2022-10-26T13:19:26.642Z,21.41
2022-10-26T13:22:46.896Z,21.54
2022-10-26T13:26:05.603Z,21.66
2022-10-26T13:29:16.723Z,21.72
2022-10-26T13:32:26.230Z,21.54
2022-10-26T13:35:44.665Z,21.47
2022-10-26T13:38:55.241Z,21.46
2022-10-26T13:42:09.960Z,21.41
2022-10-26T13:45:23.642Z,21.38
2022-10-26T13:48:38.871Z,21.42
2022-10-26T13:51:52.831Z,21.09
2022-10-26T13:55:09.020Z,21.20
2022-10-26T13:58:23.902Z,21.38
2022-10-26T14:01:34.091Z,21.28
2022-10-26T14:04:47.726Z,21.31
2022-10-26T14:08:00.037Z,21.10
2022-10-26T14:11:13.669Z,21.13
2022-10-26T14:14:26.975Z,21.22
2022-10-26T14:17:37.033Z,21.16
2022-10-26T14:20:50.886Z,21.21
2022-10-26T14:24:07.505Z,21.15
2022-10-26T14:27:18.648Z,21.15
2022-10-26T14:30:30.855Z,21.09
2022-10-26T14:33:40.526Z,20.98
2022-10-26T14:36:53.920Z,20.94
2022-10-26T14:40:07.994Z,20.89
2022-10-26T14:43:21.637Z,20.84
2022-10-26T14:46:36.231Z,20.72
2022-10-26T14:49:47.325Z,20.64
2022-10-26T14:53:00.780Z,20.62
2022-10-26T14:56:24.007Z,20.49
2022-10-26T14:59:33.613Z,20.45
2022-10-26T15:02:44.753Z,20.50
2022-10-26T15:05:54.581Z,20.46
2022-10-26T15:09:06.882Z,20.46
2022-10-26T15:12:23.468Z,20.43
2022-10-26T15:15:35.251Z,20.41
2022-10-26T15:18:48.033Z,20.27
2022-10-26T15:21:58.213Z,20.21
2022-10-26T15:25:08.725Z,20.12
2022-10-26T15:28:26.080Z,20.00
2022-10-26T15:31:35.816Z,19.88
2022-10-26T15:34:49.728Z,19.73
2022-10-26T15:38:00.917Z,19.59
2022-10-26T15:41:17.526Z,19.43
2022-10-26T15:44:30.982Z,19.29
2022-10-26T15:47:41.506Z,19.18
2022-10-26T15:50:56.805Z,19.03
2022-10-26T15:54:06.806Z,18.85
2022-10-26T15:57:19.260Z,18.70
2022-10-26T16:00:32.159Z,18.58
2022-10-26T16:03:41.687Z,18.45
2022-10-26T16:06:51.189Z,18.32
2022-10-26T16:10:00.853Z,18.18
2022-10-26T16:13:13.548Z,18.06
2022-10-26T16:16:24.346Z,17.91
2022-10-26T16:19:34.570Z,17.79
2022-10-26T16:22:48.072Z,17.64
2022-10-26T16:25:57.696Z,17.50
2022-10-26T16:29:07.324Z,17.39
2022-10-26T16:32:18.067Z,17.28
2022-10-26T16:35:27.584Z,17.19
2022-10-26T16:38:37.351Z,17.07
2022-10-26T16:41:49.806Z,16.98
2022-10-26T16:45:02.612Z,16.91
2022-10-26T16:48:15.958Z,16.83
2022-10-26T16:51:27.540Z,16.73
2022-10-26T16:54:37.087Z,16.65
2022-10-26T16:57:46.646Z,16.57
2022-10-26T17:00:56.232Z,16.43
2022-10-26T17:04:07.114Z,16.32
2022-10-26T17:07:16.875Z,16.25
2022-10-26T17:10:27.822Z,16.20
2022-10-26T17:13:38.021Z,16.10
2022-10-26T17:16:47.519Z,16.00
2022-10-26T17:19:59.358Z,15.87
2022-10-26T17:23:09.218Z,15.77
2022-10-26T17:26:18.707Z,15.69
2022-10-26T17:29:29.071Z,15.57
2022-10-26T17:32:38.626Z,15.47
2022-10-26T17:35:53.814Z,15.39
2022-10-26T17:39:03.411Z,15.30
2022-10-26T17:42:12.948Z,15.25
2022-10-26T17:45:22.566Z,15.20
2022-10-26T17:48:32.700Z,15.05
2022-10-26T17:51:43.547Z,14.90
2022-10-26T17:54:53.081Z,14.78
2022-10-26T17:58:02.630Z,14.72
2022-10-26T18:01:14.737Z,14.67
2022-10-26T18:04:24.380Z,14.60
2022-10-26T18:07:35.363Z,14.56
2022-10-26T18:10:47.812Z,14.50
2022-10-26T18:13:58.328Z,14.48
2022-10-26T18:17:07.826Z,14.43
2022-10-26T18:20:20.444Z,14.38
2022-10-26T18:23:31.266Z,14.28
2022-10-26T18:26:40.768Z,14.25
2022-10-26T18:29:50.282Z,14.23
2022-10-26T18:32:59.810Z,14.20
2022-10-26T18:36:11.397Z,14.14
2022-10-26T18:39:22.357Z,14.08
2022-10-26T18:42:31.820Z,14.00
2022-10-26T18:45:41.384Z,13.94
2022-10-26T18:48:51.649Z,13.87
2022-10-26T18:52:01.139Z,13.81
2022-10-26T18:55:12.012Z,13.77
2022-10-26T18:58:21.462Z,13.75
2022-10-26T19:01:33.031Z,13.70
2022-10-26T19:04:42.639Z,13.64
2022-10-26T19:07:52.246Z,13.58
2022-10-26T19:11:03.697Z,13.53
2022-10-26T19:14:13.703Z,13.49
2022-10-26T19:17:23.246Z,13.43
2022-10-26T19:20:32.806Z,13.38
2022-10-26T19:23:43.922Z,13.33
2022-10-26T19:26:54.835Z,13.30
2022-10-26T19:30:08.348Z,13.24
2022-10-26T19:33:17.871Z,13.19
2022-10-26T19:36:28.089Z,13.16
2022-10-26T19:39:37.566Z,13.13
2022-10-26T19:42:48.442Z,13.07
2022-10-26T19:45:58.446Z,13.02
2022-10-26T19:49:08.368Z,12.94
